Troviken — C6ZT9 — position and weather

sailwx.info

Track history (hours):
 
Tides and Currents Weather Stations Pressure Air Temp Water Temp Dewpoint Dewpoint Depression Visibility Wind Speed Wind Dir Waves Ship Positions

Troviken

Last reported at 2014-Oct-18 08:32 UTC. Time now 2014-Oct-22 13:56 UTC.
Position N 01°10' E 103°41'.

Length 250 m; draft 8.2 m.

Type: Ship (hazmat cat A). MMSI: 311066200.

Date/timePositionNaut miles runAvg speedWind from/ knotsBaromVisibWave heightAir tempDewpointWater temp
2014-Oct-18 08:32N 01°10' E 103°41'10 9.6
2014-Oct-18 07:32N 01°12' E 103°51'1110.8
2014-Oct-18 06:29N 01°16' E 104°01'3 0.2
2014-Oct-17 13:22N 01°15' E 104°04'8 9.3
2014-Oct-17 12:33N 01°13' E 103°56'8 7.2
2014-Oct-17 11:30N 01°12' E 103°49'8 7.9
2014-Oct-17 10:33N 01°18' E 103°44'0 0.0
2014-Oct-15 22:33N 01°18' E 103°43'4 3.7
2014-Oct-15 21:33N 01°15' E 103°46'9 9.2
2014-Oct-15 20:34N 01°17' E 103°55'0 0.1
2014-Oct-15 19:27N 01°17' E 103°55'0 0.0
2014-Oct-15 18:30N 01°17' E 103°55'0 0.0
2014-Oct-15 17:33N 01°17' E 103°55'0 0.0
2014-Oct-15 16:15N 01°17' E 103°55'0 0.1
2014-Oct-15 15:15N 01°17' E 103°55'0 0.1
2014-Oct-15 14:29N 01°17' E 103°55'0 0.1
2014-Oct-15 13:33N 01°17' E 103°55'0 0.0
2014-Oct-15 12:33N 01°17' E 103°55'0 0.0
2014-Oct-15 11:24N 01°17' E 103°55'0 0.0
2014-Oct-15 10:33N 01°17' E 103°55'0 0.1
2014-Oct-15 09:33N 01°17' E 103°55'0 0.1
2014-Oct-15 08:33N 01°17' E 103°55'0 0.1
2014-Oct-15 07:33N 01°17' E 103°55'0 0.1
2014-Oct-15 06:33N 01°17' E 103°55'0 0.1
2014-Oct-15 05:33N 01°17' E 103°55'0 0.0
2014-Oct-15 04:33N 01°17' E 103°55'0 0.0
2014-Oct-15 03:24N 01°17' E 103°55'0 0.0
2014-Oct-15 02:33N 01°17' E 103°55'0 0.0
2014-Oct-15 01:33N 01°17' E 103°55'0 0.0
2014-Oct-15 00:33N 01°17' E 103°55'0 0.0
2014-Oct-14 23:33N 01°17' E 103°55'0 0.0
2014-Oct-14 22:33N 01°17' E 103°55'0 0.0
2014-Oct-14 21:33N 01°17' E 103°55'0 0.0
2014-Oct-14 20:33N 01°17' E 103°55'0 0.1
2014-Oct-14 19:33N 01°17' E 103°55'0 0.1
2014-Oct-14 18:33N 01°17' E 103°55'0 0.0
2014-Oct-14 17:33N 01°17' E 103°55'0 0.0
2014-Oct-14 16:33N 01°17' E 103°55'0 0.2
2014-Oct-14 15:33N 01°17' E 103°55'0 0.1
2014-Oct-14 14:33N 01°17' E 103°55'0 0.0
2014-Oct-14 13:33N 01°17' E 103°55'0 0.0
2014-Oct-14 12:33N 01°17' E 103°55'0 0.1
2014-Oct-14 11:33N 01°17' E 103°55'0 0.0
2014-Oct-14 10:33N 01°17' E 103°55'0 0.0
2014-Oct-14 09:33N 01°17' E 103°55'0 0.0
2014-Oct-14 08:33N 01°17' E 103°55'0 0.2
2014-Oct-14 07:33N 01°17' E 103°55'0 0.2
2014-Oct-14 06:33N 01°17' E 103°55'0 0.0
2014-Oct-14 05:33N 01°17' E 103°55'0 0.0
2014-Oct-14 04:33N 01°17' E 103°55'0 0.0
2014-Oct-14 03:21N 01°17' E 103°55'0 0.0
2014-Oct-14 02:33N 01°17' E 103°55'0 0.0
2014-Oct-14 01:33N 01°17' E 103°55'0 0.0
2014-Oct-14 00:33N 01°17' E 103°55'0 0.0
2014-Oct-13 23:33N 01°17' E 103°55'0 0.0
2014-Oct-13 22:33N 01°17' E 103°55'0 0.2
2014-Oct-13 21:34N 01°17' E 103°55'7 6.9
2014-Oct-13 20:33N 01°12' E 103°50'2 2.4
2014-Oct-13 19:32N 01°13' E 103°48'0 0.0
2014-Oct-13 18:29N 01°13' E 103°48'0 0.0
2014-Oct-13 17:32N 01°13' E 103°48'0 0.0
2014-Oct-12 17:31N 01°13' E 103°48'1 0.6
2014-Oct-12 16:33N 01°13' E 103°48'6 5.5
2014-Oct-12 15:33N 01°13' E 103°53'3 2.7
2014-Oct-12 14:33N 01°16' E 103°54'0 0.1
2014-Oct-12 13:32N 01°16' E 103°54'0 0.1
2014-Oct-12 12:20N 01°16' E 103°55'0 0.0
2014-Oct-12 11:17N 01°16' E 103°55'0 0.1
2014-Oct-12 10:32N 01°16' E 103°55'0 0.0
2014-Oct-12 09:32N 01°16' E 103°55'0 0.0
2014-Oct-12 08:29N 01°16' E 103°55'0 0.0
2014-Oct-12 07:32N 01°16' E 103°55'0 0.1
2014-Oct-12 06:29N 01°16' E 103°55'0 0.2
2014-Oct-12 05:17N 01°16' E 103°54'0 0.0
2014-Oct-12 04:26N 01°16' E 103°54'0 0.1
2014-Oct-12 03:32N 01°16' E 103°54'0 0.0
2014-Oct-12 02:32N 01°16' E 103°54'0 0.0
2014-Oct-12 01:32N 01°16' E 103°54'0 0.0
2014-Oct-12 00:29N 01°16' E 103°54'0 0.1
2014-Oct-11 23:32N 01°16' E 103°54'0 0.0
2014-Oct-11 22:33N 01°16' E 103°54'3 3.0
2014-Oct-11 21:33N 01°15' E 103°57'4 4.1
2014-Oct-11 20:33N 01°13' E 103°54'7 7.3
2014-Oct-11 19:33N 01°09' E 103°48'7 6.6
2014-Oct-11 18:28N 01°05' E 103°43'19 0.4
2014-Oct-09 17:33N 01°21' E 103°33'4 3.8
2014-Oct-09 16:33N 01°17' E 103°33'4 3.9
2014-Oct-09 15:33N 01°14' E 103°32'8 8.4
2014-Oct-09 14:33N 01°11' E 103°40'9 9.1
2014-Oct-09 13:33N 01°11' E 103°49'1211.8
2014-Oct-09 12:33N 01°16' E 104°00'  
Track history (hours):
 
Tides and Currents Weather Stations Pressure Air Temp Water Temp Dewpoint Dewpoint Depression Visibility Wind Speed Wind Dir Waves Ship Positions

Troviken

Last reported at 2014-Oct-18 08:32 UTC. Time now 2014-Oct-22 13:56 UTC.
Position N 01°10' E 103°41'.

Length 250 m; draft 8.2 m.

Type: Ship (hazmat cat A). MMSI: 311066200.

Date/timePositionNaut miles runAvg speedWind from/ knotsBaromVisibWave heightAir tempDewpointWater temp
2014-Oct-18 08:32N 01°10' E 103°41'10 9.6
2014-Oct-18 07:32N 01°12' E 103°51'1110.8
2014-Oct-18 06:29N 01°16' E 104°01'3 0.2
2014-Oct-17 13:22N 01°15' E 104°04'8 9.3
2014-Oct-17 12:33N 01°13' E 103°56'8 7.2
2014-Oct-17 11:30N 01°12' E 103°49'8 7.9
2014-Oct-17 10:33N 01°18' E 103°44'0 0.0
2014-Oct-15 22:33N 01°18' E 103°43'4 3.7
2014-Oct-15 21:33N 01°15' E 103°46'9 9.2
2014-Oct-15 20:34N 01°17' E 103°55'0 0.1
2014-Oct-15 19:27N 01°17' E 103°55'0 0.0
2014-Oct-15 18:30N 01°17' E 103°55'0 0.0
2014-Oct-15 17:33N 01°17' E 103°55'0 0.0
2014-Oct-15 16:15N 01°17' E 103°55'0 0.1
2014-Oct-15 15:15N 01°17' E 103°55'0 0.1
2014-Oct-15 14:29N 01°17' E 103°55'0 0.1
2014-Oct-15 13:33N 01°17' E 103°55'0 0.0
2014-Oct-15 12:33N 01°17' E 103°55'0 0.0
2014-Oct-15 11:24N 01°17' E 103°55'0 0.0
2014-Oct-15 10:33N 01°17' E 103°55'0 0.1
2014-Oct-15 09:33N 01°17' E 103°55'0 0.1
2014-Oct-15 08:33N 01°17' E 103°55'0 0.1
2014-Oct-15 07:33N 01°17' E 103°55'0 0.1
2014-Oct-15 06:33N 01°17' E 103°55'0 0.1
2014-Oct-15 05:33N 01°17' E 103°55'0 0.0
2014-Oct-15 04:33N 01°17' E 103°55'0 0.0
2014-Oct-15 03:24N 01°17' E 103°55'0 0.0
2014-Oct-15 02:33N 01°17' E 103°55'0 0.0
2014-Oct-15 01:33N 01°17' E 103°55'0 0.0
2014-Oct-15 00:33N 01°17' E 103°55'0 0.0
2014-Oct-14 23:33N 01°17' E 103°55'0 0.0
2014-Oct-14 22:33N 01°17' E 103°55'0 0.0
2014-Oct-14 21:33N 01°17' E 103°55'0 0.0
2014-Oct-14 20:33N 01°17' E 103°55'0 0.1
2014-Oct-14 19:33N 01°17' E 103°55'0 0.1
2014-Oct-14 18:33N 01°17' E 103°55'0 0.0
2014-Oct-14 17:33N 01°17' E 103°55'0 0.0
2014-Oct-14 16:33N 01°17' E 103°55'0 0.2
2014-Oct-14 15:33N 01°17' E 103°55'0 0.1
2014-Oct-14 14:33N 01°17' E 103°55'0 0.0
2014-Oct-14 13:33N 01°17' E 103°55'0 0.0
2014-Oct-14 12:33N 01°17' E 103°55'0 0.1
2014-Oct-14 11:33N 01°17' E 103°55'0 0.0
2014-Oct-14 10:33N 01°17' E 103°55'0 0.0
2014-Oct-14 09:33N 01°17' E 103°55'0 0.0
2014-Oct-14 08:33N 01°17' E 103°55'0 0.2
2014-Oct-14 07:33N 01°17' E 103°55'0 0.2
2014-Oct-14 06:33N 01°17' E 103°55'0 0.0
2014-Oct-14 05:33N 01°17' E 103°55'0 0.0
2014-Oct-14 04:33N 01°17' E 103°55'0 0.0
2014-Oct-14 03:21N 01°17' E 103°55'0 0.0
2014-Oct-14 02:33N 01°17' E 103°55'0 0.0
2014-Oct-14 01:33N 01°17' E 103°55'0 0.0
2014-Oct-14 00:33N 01°17' E 103°55'0 0.0
2014-Oct-13 23:33N 01°17' E 103°55'0 0.0
2014-Oct-13 22:33N 01°17' E 103°55'0 0.2
2014-Oct-13 21:34N 01°17' E 103°55'7 6.9
2014-Oct-13 20:33N 01°12' E 103°50'2 2.4
2014-Oct-13 19:32N 01°13' E 103°48'0 0.0
2014-Oct-13 18:29N 01°13' E 103°48'0 0.0
2014-Oct-13 17:32N 01°13' E 103°48'0 0.0
2014-Oct-12 17:31N 01°13' E 103°48'1 0.6
2014-Oct-12 16:33N 01°13' E 103°48'6 5.5
2014-Oct-12 15:33N 01°13' E 103°53'3 2.7
2014-Oct-12 14:33N 01°16' E 103°54'0 0.1
2014-Oct-12 13:32N 01°16' E 103°54'0 0.1
2014-Oct-12 12:20N 01°16' E 103°55'0 0.0
2014-Oct-12 11:17N 01°16' E 103°55'0 0.1
2014-Oct-12 10:32N 01°16' E 103°55'0 0.0
2014-Oct-12 09:32N 01°16' E 103°55'0 0.0
2014-Oct-12 08:29N 01°16' E 103°55'0 0.0
2014-Oct-12 07:32N 01°16' E 103°55'0 0.1
2014-Oct-12 06:29N 01°16' E 103°55'0 0.2
2014-Oct-12 05:17N 01°16' E 103°54'0 0.0
2014-Oct-12 04:26N 01°16' E 103°54'0 0.1
2014-Oct-12 03:32N 01°16' E 103°54'0 0.0
2014-Oct-12 02:32N 01°16' E 103°54'0 0.0
2014-Oct-12 01:32N 01°16' E 103°54'0 0.0
2014-Oct-12 00:29N 01°16' E 103°54'0 0.1
2014-Oct-11 23:32N 01°16' E 103°54'0 0.0
2014-Oct-11 22:33N 01°16' E 103°54'3 3.0
2014-Oct-11 21:33N 01°15' E 103°57'4 4.1
2014-Oct-11 20:33N 01°13' E 103°54'7 7.3
2014-Oct-11 19:33N 01°09' E 103°48'7 6.6
2014-Oct-11 18:28N 01°05' E 103°43'19 0.4
2014-Oct-09 17:33N 01°21' E 103°33'4 3.8
2014-Oct-09 16:33N 01°17' E 103°33'4 3.9
2014-Oct-09 15:33N 01°14' E 103°32'8 8.4
2014-Oct-09 14:33N 01°11' E 103°40'9 9.1
2014-Oct-09 13:33N 01°11' E 103°49'1211.8
2014-Oct-09 12:33N 01°16' E 104°00'  

Dump ship's entire track history